createdAt,value
2018-10-21T00:04:40.492Z,8.30
2018-10-21T00:09:31.389Z,8.30
2018-10-21T00:14:22.293Z,8.20
2018-10-21T00:19:13.994Z,8.10
2018-10-21T00:24:05.644Z,8.00
2018-10-21T00:28:56.547Z,8.00
2018-10-21T00:33:48.207Z,7.90
2018-10-21T00:38:39.205Z,7.80
2018-10-21T00:43:30.100Z,7.80
2018-10-21T00:48:21.003Z,7.70
2018-10-21T00:53:11.900Z,7.70
2018-10-21T00:58:03.516Z,7.60
2018-10-21T01:02:54.430Z,7.50
2018-10-21T01:07:46.064Z,7.40
2018-10-21T01:12:37.033Z,7.40
2018-10-21T01:17:28.623Z,7.30
2018-10-21T01:22:19.525Z,7.30
2018-10-21T01:27:10.539Z,7.20
2018-10-21T01:32:01.376Z,7.20
2018-10-21T01:36:53.131Z,7.00
2018-10-21T01:41:43.920Z,7.00
2018-10-21T01:46:34.801Z,6.90
2018-10-21T01:51:26.445Z,6.80
2018-10-21T01:56:17.348Z,6.80
2018-10-21T02:01:08.990Z,6.60
2018-10-21T02:05:59.903Z,6.60
2018-10-21T02:10:51.535Z,6.50
2018-10-21T02:15:42.434Z,6.40
2018-10-21T02:20:33.347Z,6.40
2018-10-21T02:25:24.242Z,6.30
2018-10-21T02:30:15.146Z,6.30
2018-10-21T02:35:06.786Z,6.10
2018-10-21T02:39:57.685Z,6.00
2018-10-21T02:44:48.584Z,6.00
2018-10-21T02:49:39.477Z,5.90
2018-10-21T02:54:30.368Z,5.90
2018-10-21T02:59:21.287Z,5.80
2018-10-21T03:04:12.192Z,5.80
2018-10-21T03:09:03.095Z,5.60
2018-10-21T03:13:55.468Z,5.50
2018-10-21T03:18:46.375Z,5.50
2018-10-21T03:23:38.023Z,5.40
2018-10-21T03:28:28.950Z,5.40
2018-10-21T03:33:20.052Z,5.30
2018-10-21T03:38:10.748Z,5.30
2018-10-21T03:43:02.377Z,5.10
2018-10-21T03:47:53.282Z,5.10
2018-10-21T03:52:44.167Z,5.10
2018-10-21T03:57:35.812Z,5.00
2018-10-21T04:02:26.726Z,4.90
2018-10-21T04:07:18.436Z,4.80
2018-10-21T04:12:09.327Z,4.80
2018-10-21T04:17:00.256Z,4.70
2018-10-21T04:21:51.891Z,4.60
2018-10-21T04:26:42.784Z,4.60
2018-10-21T04:31:33.672Z,4.60
2018-10-21T04:36:25.302Z,4.40
2018-10-21T04:41:16.205Z,4.40
2018-10-21T04:46:07.920Z,4.30
2018-10-21T04:50:58.747Z,4.30
2018-10-21T04:55:49.757Z,4.30
2018-10-21T05:00:40.757Z,4.20
2018-10-21T05:05:32.364Z,4.10
2018-10-21T05:10:23.246Z,4.00
2018-10-21T05:15:14.896Z,4.00
2018-10-21T05:20:05.778Z,3.90
2018-10-21T05:24:58.232Z,3.80
2018-10-21T05:29:49.121Z,3.80
2018-10-21T05:34:40.050Z,3.80
2018-10-21T05:39:31.683Z,3.70
2018-10-21T05:44:22.689Z,3.70
2018-10-21T05:49:14.395Z,3.60
2018-10-21T05:54:05.363Z,3.60
2018-10-21T05:58:56.252Z,3.50
2018-10-21T06:03:47.179Z,3.50
2018-10-21T06:08:38.822Z,3.50
2018-10-21T06:13:29.711Z,3.50
2018-10-21T06:18:20.591Z,3.40
2018-10-21T06:23:12.238Z,3.40
2018-10-21T06:28:03.156Z,3.40
2018-10-21T06:32:54.798Z,3.40
2018-10-21T06:37:45.689Z,3.40
2018-10-21T06:42:36.574Z,3.40
2018-10-21T06:47:28.215Z,3.40
2018-10-21T06:52:19.109Z,3.40
2018-10-21T06:57:10.907Z,3.50
2018-10-21T07:02:01.656Z,3.50
2018-10-21T07:06:53.294Z,3.60
2018-10-21T07:11:44.197Z,3.60
2018-10-21T07:16:35.193Z,3.70
2018-10-21T07:21:26.805Z,3.80
2018-10-21T07:26:17.756Z,3.80
2018-10-21T07:31:08.723Z,3.80
2018-10-21T07:36:00.395Z,4.00
2018-10-21T07:40:52.020Z,4.20
2018-10-21T07:45:42.956Z,4.10
2018-10-21T07:50:34.679Z,4.50
2018-10-21T07:55:25.974Z,4.50
2018-10-21T08:00:17.625Z,4.90
2018-10-21T08:05:08.579Z,4.80
2018-10-21T08:10:00.303Z,5.30
2018-10-21T08:14:51.258Z,5.20
2018-10-21T08:19:43.660Z,5.60
2018-10-21T08:24:34.568Z,5.60
2018-10-21T08:29:25.463Z,5.80
2018-10-21T08:34:17.215Z,6.10
2018-10-21T08:39:08.026Z,6.10
2018-10-21T08:43:59.711Z,6.50
2018-10-21T08:48:51.395Z,6.70
2018-10-21T08:53:43.023Z,6.90
2018-10-21T08:58:33.911Z,6.90
2018-10-21T09:03:24.830Z,7.10
2018-10-21T09:08:15.737Z,7.30
2018-10-21T09:13:06.682Z,7.50
2018-10-21T09:17:57.565Z,7.70
2018-10-21T09:22:48.500Z,7.90
2018-10-21T09:27:39.471Z,8.10
2018-10-21T09:32:31.106Z,8.50
2018-10-21T09:37:22.018Z,8.50
2018-10-21T09:42:12.995Z,8.60
2018-10-21T09:47:03.952Z,8.90
2018-10-21T09:51:54.855Z,9.00
2018-10-21T09:56:46.494Z,9.30
2018-10-21T10:01:43.798Z,9.30
2018-10-21T10:06:34.727Z,9.50
2018-10-21T10:11:26.378Z,9.80
2018-10-21T10:16:17.351Z,9.70
2018-10-21T10:21:08.242Z,10.00
2018-10-21T10:25:59.888Z,10.30
2018-10-21T10:30:50.798Z,10.30
2018-10-21T10:35:42.453Z,10.80
2018-10-21T10:40:33.347Z,10.80
2018-10-21T10:45:24.988Z,11.70
2018-10-21T10:50:15.884Z,11.70
2018-10-21T10:55:06.920Z,12.30
2018-10-21T10:59:57.916Z,12.90
2018-10-21T11:04:48.652Z,13.40
2018-10-21T11:09:39.535Z,13.90
2018-10-21T11:14:30.539Z,14.60
2018-10-21T11:19:21.405Z,15.20
2018-10-21T11:24:12.295Z,16.00
2018-10-21T11:29:03.971Z,17.30
2018-10-21T11:33:56.427Z,17.70
2018-10-21T11:38:47.406Z,17.70
2018-10-21T11:43:38.347Z,18.10
2018-10-21T11:48:30.018Z,18.90
2018-10-21T11:53:21.656Z,19.20
2018-10-21T11:58:12.650Z,19.20
2018-10-21T12:03:04.223Z,19.90
2018-10-21T12:07:55.186Z,19.80
2018-10-21T12:12:46.088Z,19.90
2018-10-21T12:17:37.790Z,19.60
2018-10-21T12:22:29.502Z,19.50
2018-10-21T12:27:20.444Z,19.40
2018-10-21T12:32:12.078Z,19.50
2018-10-21T12:37:02.983Z,19.40
2018-10-21T12:41:53.881Z,19.60
2018-10-21T12:52:02.604Z,19.80
2018-10-21T12:56:53.472Z,20.00
2018-10-21T13:01:44.362Z,20.10
2018-10-21T13:06:35.257Z,20.10
2018-10-21T13:11:26.131Z,20.20
2018-10-21T13:16:17.085Z,20.30
2018-10-21T13:21:07.958Z,20.30
2018-10-21T13:25:58.867Z,20.30
2018-10-21T13:30:49.777Z,20.20
2018-10-21T13:35:40.679Z,20.00
2018-10-21T13:40:31.618Z,19.80
2018-10-21T13:45:22.571Z,19.60
2018-10-21T13:50:13.552Z,19.40
2018-10-21T13:55:04.454Z,19.10
2018-10-21T13:59:55.346Z,18.80
2018-10-21T14:04:46.247Z,18.50
2018-10-21T14:09:37.217Z,18.20
2018-10-21T14:14:28.120Z,18.00
2018-10-21T14:19:19.008Z,17.70
2018-10-21T14:24:09.949Z,17.50
2018-10-21T14:29:01.541Z,17.10
2018-10-21T14:33:52.440Z,17.10
2018-10-21T14:38:44.096Z,16.70
2018-10-21T14:43:35.021Z,16.60
2018-10-21T14:48:25.923Z,16.50
2018-10-21T14:53:16.819Z,16.30
2018-10-21T14:58:07.723Z,16.10
2018-10-21T15:02:58.725Z,15.90
2018-10-21T15:07:49.581Z,15.70
2018-10-21T15:12:40.532Z,15.50
2018-10-21T15:17:31.466Z,15.40
2018-10-21T15:22:23.164Z,15.10
2018-10-21T15:27:14.806Z,14.90
2018-10-21T15:32:05.809Z,14.90
2018-10-21T15:36:56.696Z,14.70
2018-10-21T15:41:48.390Z,14.40
2018-10-21T15:46:39.370Z,14.30
2018-10-21T15:51:30.340Z,14.20
2018-10-21T15:56:21.294Z,14.00
2018-10-21T16:01:12.230Z,13.80
2018-10-21T16:06:03.349Z,13.60
2018-10-21T16:10:54.292Z,13.40
2018-10-21T16:15:45.330Z,13.20
2018-10-21T16:20:36.314Z,13.00
2018-10-21T16:25:28.289Z,12.80
2018-10-21T16:30:19.191Z,12.60
2018-10-21T16:35:10.875Z,12.20
2018-10-21T16:40:02.538Z,12.00
2018-10-21T16:44:53.465Z,12.00
2018-10-21T16:49:44.443Z,11.80
2018-10-21T16:54:35.344Z,11.60
2018-10-21T16:59:26.452Z,11.50
2018-10-21T17:04:17.317Z,11.30
2018-10-21T17:09:08.352Z,11.10
2018-10-21T17:13:59.240Z,10.90
2018-10-21T17:18:50.987Z,10.60
2018-10-21T17:23:41.903Z,10.60
2018-10-21T17:28:33.532Z,10.30
2018-10-21T17:33:24.474Z,10.20
2018-10-21T17:38:15.352Z,10.10
2018-10-21T17:43:06.284Z,10.00
2018-10-21T17:47:57.905Z,9.70
2018-10-21T17:52:48.827Z,9.70
2018-10-21T17:57:40.487Z,9.40
2018-10-21T18:02:31.508Z,9.40
2018-10-21T18:07:22.420Z,9.30
2018-10-21T18:12:14.868Z,9.00
2018-10-21T18:17:05.926Z,9.00
2018-10-21T18:21:56.865Z,9.00
2018-10-21T18:26:47.761Z,8.80
2018-10-21T18:31:39.433Z,8.60
2018-10-21T18:36:31.137Z,8.50
2018-10-21T18:41:22.759Z,8.40
2018-10-21T18:46:13.664Z,8.40
2018-10-21T18:51:04.540Z,8.30
2018-10-21T18:55:56.178Z,8.10
2018-10-21T19:00:47.090Z,8.10
2018-10-21T19:05:38.711Z,7.90
2018-10-21T19:10:29.681Z,7.90
2018-10-21T19:15:20.591Z,7.80
2018-10-21T19:20:12.228Z,7.70
2018-10-21T19:25:03.113Z,7.70
2018-10-21T19:29:54.043Z,7.50
2018-10-21T19:34:46.461Z,7.40
2018-10-21T19:39:37.352Z,7.40
2018-10-21T19:44:28.289Z,7.30
2018-10-21T19:49:19.194Z,7.20
2018-10-21T19:54:10.085Z,7.10
2018-10-21T19:59:00.988Z,7.10
2018-10-21T20:03:51.881Z,7.00
2018-10-21T20:08:42.771Z,6.90
2018-10-21T20:13:33.673Z,6.90
2018-10-21T20:18:24.640Z,6.80
2018-10-21T20:23:16.213Z,6.70
2018-10-21T20:28:07.887Z,6.60
2018-10-21T20:32:58.837Z,6.70
2018-10-21T20:37:49.738Z,6.60
2018-10-21T20:42:41.382Z,6.50
2018-10-21T20:47:32.275Z,6.50
2018-10-21T20:52:23.175Z,6.40
2018-10-21T20:57:14.795Z,6.30
2018-10-21T21:02:05.671Z,6.30
2018-10-21T21:06:56.550Z,6.30
2018-10-21T21:11:47.491Z,6.20
2018-10-21T21:16:38.428Z,6.20
2018-10-21T21:21:30.146Z,6.10
2018-10-21T21:26:21.094Z,6.10
2018-10-21T21:31:12.714Z,6.00
2018-10-21T21:36:03.670Z,6.00
2018-10-21T21:40:56.028Z,5.90
2018-10-21T21:45:46.924Z,5.90
2018-10-21T21:50:38.570Z,5.90
2018-10-21T21:55:29.456Z,5.80
2018-10-21T22:00:20.367Z,5.80
2018-10-21T22:05:12.013Z,5.80
2018-10-21T22:10:02.942Z,5.70
2018-10-21T22:14:54.573Z,5.70
2018-10-21T22:19:45.497Z,5.70
2018-10-21T22:24:36.458Z,5.60
2018-10-21T22:29:28.157Z,5.60
2018-10-21T22:34:19.172Z,5.60
2018-10-21T22:39:09.968Z,5.60
2018-10-21T22:44:02.334Z,5.60
2018-10-21T22:48:53.259Z,5.60
2018-10-21T22:53:44.953Z,5.70
2018-10-21T22:58:36.624Z,5.70
2018-10-21T23:03:28.351Z,5.70
2018-10-21T23:08:19.235Z,5.70
2018-10-21T23:13:10.156Z,5.80
2018-10-21T23:18:01.816Z,6.00
2018-10-21T23:22:52.677Z,5.90
2018-10-21T23:27:44.363Z,6.10
2018-10-21T23:32:36.122Z,6.10
2018-10-21T23:37:27.055Z,6.20
2018-10-21T23:42:18.079Z,6.20
2018-10-21T23:47:08.879Z,6.30
2018-10-21T23:51:59.865Z,6.40
2018-10-21T23:56:50.680Z,6.50
